Impacts TAF Board
For situational awareness. Not to be used for flight planning purposes.
IDs:

KACT - Waco Rgnl, TX, US

Issued at 1123 UTC 25 Jan 2020
Updated at 1442 UTC 25 Jan 2020
Potential Impact None Slight Moderate High
Time<<26/03Z 26/04Z 26/05Z 26/06Z 26/07Z 26/08Z 26/09Z 26/10Z 26/11Z 26/12Z 26/13Z 26/14Z 26/15Z>>
Type PRVL PRVL PRVL PRVL PRVL PRVL PRVL PRVL PRVL
VIS >6 >6 >6 >6 >6 >6 >6 >6 >6
CIG 40 40 40 40 20 20 20 20 20
Cover OVC OVC OVC OVC OVC OVC OVC OVC OVC
FltCat VFR VFR VFR VFR MVFR MVFR MVFR MVFR MVFR
WX VCSH VCSH VCSH VCSH -- -- -- -- --
WDir 170 170 170 170 170 170 170 170 170
WSpd 11 11 11 11 9 9 9 9 9
WGst -- -- -- -- -- -- -- -- --
Raw TAF
KACT 251123Z 2512/2612 14005KT P6SM SKC
  FM251700 16012KT P6SM SCT060 BKN300
  FM252100 17012KT P6SM BKN050
  FM260300 17011KT P6SM VCSH OVC040
  FM260700 17009KT P6SM OVC020


METAR Board
Radar Display
Forecast Discussion
For situational awareness. Not to be used for flight planning purposes.